createdAt,value
2022-10-17T13:51:27.768Z,0.90
2022-10-17T13:53:55.846Z,1.02
2022-10-17T13:56:30.132Z,1.33
2022-10-17T13:59:00.575Z,1.40
2022-10-17T14:01:29.436Z,1.15
2022-10-17T14:06:45.079Z,1.52
2022-10-17T14:09:28.331Z,1.55
2022-10-17T14:12:03.066Z,2.25
2022-10-17T14:14:46.095Z,1.80
2022-10-17T14:17:26.743Z,1.58
2022-10-17T14:20:16.103Z,0.90
2022-10-17T14:23:04.526Z,1.63
2022-10-17T14:25:38.141Z,1.20
2022-10-17T14:28:08.215Z,1.30
2022-10-17T14:30:55.881Z,3.22
2022-10-17T14:33:27.256Z,1.45
2022-10-17T14:35:57.586Z,1.88
2022-10-17T14:38:25.775Z,1.33
2022-10-17T14:41:09.761Z,2.45
2022-10-17T14:43:42.698Z,1.67
2022-10-17T14:46:15.977Z,1.48
2022-10-17T14:48:43.640Z,1.40
2022-10-17T14:51:16.970Z,1.58
2022-10-17T14:54:02.926Z,1.63
2022-10-17T14:56:40.597Z,2.25
2022-10-17T14:59:12.604Z,1.83
2022-10-17T15:01:45.039Z,2.00
2022-10-17T15:04:11.917Z,1.70
2022-10-17T15:06:40.740Z,1.98
2022-10-17T15:09:07.628Z,2.00
2022-10-17T15:11:34.460Z,2.20
2022-10-17T15:14:01.275Z,1.60
2022-10-17T15:16:32.049Z,2.05
2022-10-17T15:18:58.899Z,2.47
2022-10-17T15:21:38.464Z,2.65
2022-10-17T15:24:07.822Z,2.08
2022-10-17T15:26:35.314Z,2.63
2022-10-17T15:29:02.279Z,2.10
2022-10-17T15:31:31.690Z,2.40
2022-10-17T15:33:58.539Z,2.22
2022-10-17T15:36:28.824Z,2.50
2022-10-17T15:38:58.691Z,3.50
2022-10-17T15:41:28.518Z,3.30
2022-10-17T15:43:56.521Z,3.30
2022-10-17T15:46:26.601Z,2.65
2022-10-17T15:48:54.858Z,2.70
2022-10-17T15:51:22.376Z,2.50
2022-10-17T15:53:49.837Z,3.58
2022-10-17T15:56:23.670Z,2.80
2022-10-17T15:58:51.754Z,2.80
2022-10-17T16:01:30.133Z,3.10
2022-10-17T16:03:57.724Z,3.08
2022-10-17T16:06:25.710Z,2.83
2022-10-17T16:08:52.948Z,3.03
2022-10-17T16:11:29.090Z,2.97
2022-10-17T16:13:59.629Z,3.53
2022-10-17T16:16:26.660Z,3.65
2022-10-17T16:18:53.708Z,3.67
2022-10-17T16:21:25.502Z,3.72
2022-10-17T16:23:52.664Z,3.15
2022-10-17T16:26:19.865Z,3.08
2022-10-17T16:28:46.898Z,3.03
2022-10-17T16:31:23.590Z,3.22
2022-10-17T16:33:52.636Z,3.33
2022-10-17T16:36:19.736Z,4.05
2022-10-17T16:38:47.938Z,4.22
2022-10-17T16:41:38.196Z,4.47
2022-10-17T16:44:08.504Z,4.75
2022-10-17T16:46:37.541Z,4.88
2022-10-17T16:49:05.661Z,4.57
2022-10-17T16:51:35.887Z,4.82
2022-10-17T16:54:04.836Z,4.80
2022-10-17T16:56:33.090Z,5.18
2022-10-17T16:59:01.155Z,5.40
2022-10-17T17:01:29.572Z,6.15
2022-10-17T17:03:57.089Z,10.40
2022-10-17T17:06:27.329Z,12.40
2022-10-17T17:08:55.195Z,12.20
2022-10-17T17:11:25.135Z,11.30
2022-10-17T17:13:52.372Z,11.80
2022-10-17T17:16:21.975Z,13.27
2022-10-17T17:18:51.497Z,13.63
2022-10-17T17:21:18.382Z,12.95
2022-10-17T17:23:45.417Z,13.48
2022-10-17T17:26:21.737Z,18.65
2022-10-17T17:28:49.991Z,15.18
2022-10-17T17:31:22.523Z,15.63
2022-10-17T17:33:50.320Z,13.77
2022-10-17T17:36:21.241Z,12.82
2022-10-17T17:38:49.310Z,13.45
2022-10-17T17:41:18.256Z,14.52
2022-10-17T17:43:46.149Z,12.50
2022-10-17T17:46:15.259Z,13.15
2022-10-17T17:48:43.480Z,12.02
2022-10-17T17:51:12.141Z,13.85
2022-10-17T17:53:40.031Z,12.60
2022-10-17T17:56:10.607Z,12.73
2022-10-17T17:58:37.608Z,14.23
2022-10-17T18:01:12.366Z,11.63
2022-10-17T18:03:41.402Z,14.07
2022-10-17T18:06:08.558Z,12.85
2022-10-17T18:08:36.679Z,14.48
2022-10-17T18:11:04.856Z,13.30
2022-10-17T18:13:32.700Z,13.93
2022-10-17T18:16:01.630Z,12.97
2022-10-17T18:18:30.156Z,13.20
2022-10-17T18:21:01.076Z,13.43
2022-10-17T18:23:27.880Z,13.93
2022-10-17T18:26:02.471Z,14.77
2022-10-17T18:28:30.076Z,17.45
2022-10-17T18:31:01.025Z,16.77
2022-10-17T18:33:27.809Z,17.20
2022-10-17T18:35:58.137Z,16.20
2022-10-17T18:38:26.573Z,18.63
2022-10-17T18:41:02.865Z,18.57
2022-10-17T18:43:29.709Z,21.17
2022-10-17T18:46:01.199Z,20.13
2022-10-17T18:48:28.570Z,17.87
2022-10-17T18:50:55.402Z,17.00
2022-10-17T18:53:22.801Z,18.47
2022-10-17T18:55:51.315Z,18.70
2022-10-17T18:58:21.792Z,22.58
2022-10-17T19:00:50.373Z,22.43
2022-10-17T19:03:18.181Z,21.05
2022-10-17T19:05:46.393Z,30.23
2022-10-17T19:08:15.373Z,33.63
2022-10-17T19:10:43.230Z,34.03
2022-10-17T19:13:11.765Z,28.37
2022-10-17T19:15:39.554Z,28.67
2022-10-17T19:18:06.724Z,32.80
2022-10-17T19:20:33.633Z,36.70
2022-10-17T19:23:00.446Z,32.47
2022-10-17T19:25:30.479Z,31.80
2022-10-17T19:27:58.062Z,32.73
2022-10-17T19:30:25.150Z,33.83
2022-10-17T19:32:52.388Z,35.67
2022-10-17T19:35:19.219Z,44.40
2022-10-17T19:37:46.143Z,36.00
2022-10-17T19:40:13.844Z,34.37
2022-10-17T19:42:40.875Z,30.00
2022-10-17T19:45:09.038Z,33.93
2022-10-17T19:47:36.250Z,32.60
2022-10-17T19:52:31.210Z,63.30
2022-10-17T19:54:58.249Z,53.47
2022-10-17T19:57:25.970Z,51.37
2022-10-17T19:59:55.866Z,43.20
2022-10-17T20:02:23.564Z,48.13
2022-10-17T20:05:00.131Z,57.17
2022-10-17T20:07:37.190Z,52.50
2022-10-17T20:10:04.258Z,57.33
2022-10-17T20:12:31.374Z,53.27
2022-10-17T20:14:58.411Z,42.80
2022-10-17T20:17:25.726Z,41.87
2022-10-17T20:19:52.552Z,41.43
2022-10-17T20:22:19.389Z,43.47
2022-10-17T20:24:46.313Z,37.53
2022-10-17T20:27:13.177Z,33.47
2022-10-17T20:29:40.595Z,31.37
2022-10-17T20:32:07.452Z,27.60
2022-10-17T20:34:35.756Z,27.73
2022-10-17T20:37:02.749Z,25.63
2022-10-17T20:39:30.339Z,26.23
2022-10-17T20:41:57.149Z,19.70
2022-10-17T20:44:23.987Z,23.10
2022-10-17T20:47:01.209Z,26.83
2022-10-17T20:49:30.366Z,24.17
2022-10-17T20:51:57.456Z,22.33
2022-10-17T20:54:24.788Z,26.57
2022-10-17T20:56:52.216Z,26.13
2022-10-17T20:59:22.011Z,24.93
2022-10-17T21:01:48.952Z,24.53
2022-10-17T21:04:44.794Z,23.37
2022-10-17T21:07:04.207Z,23.77
2022-10-17T21:09:31.245Z,23.07
2022-10-17T21:11:58.491Z,23.70
2022-10-17T21:14:25.660Z,20.77
2022-10-17T21:16:52.913Z,18.30
2022-10-17T21:19:28.666Z,18.80
2022-10-17T21:21:58.443Z,19.38
2022-10-17T21:24:25.654Z,19.73
2022-10-17T21:26:55.781Z,19.50
2022-10-17T21:29:23.548Z,19.50
2022-10-17T21:31:50.639Z,17.43
2022-10-17T21:34:21.323Z,18.57
2022-10-17T21:36:48.491Z,17.20
2022-10-17T21:39:16.002Z,15.20
2022-10-17T21:41:43.916Z,17.27
2022-10-17T21:44:14.017Z,14.20
2022-10-17T21:46:41.500Z,14.47
2022-10-17T21:49:09.624Z,13.97
2022-10-17T21:51:36.432Z,16.10
2022-10-17T21:54:05.662Z,17.97
2022-10-17T21:56:34.841Z,17.83
2022-10-17T21:59:02.121Z,19.20
2022-10-17T22:01:31.845Z,19.40
2022-10-17T22:04:02.049Z,20.10
2022-10-17T22:06:47.098Z,22.93
2022-10-17T22:09:18.336Z,26.03
2022-10-17T22:11:48.313Z,25.40
2022-10-17T22:14:18.064Z,24.10
2022-10-17T22:16:52.248Z,23.43
2022-10-17T22:19:22.073Z,22.47
2022-10-17T22:21:49.743Z,22.30
2022-10-17T22:24:18.270Z,22.13
2022-10-17T22:26:45.788Z,23.30
2022-10-17T22:29:12.931Z,22.13
2022-10-17T22:31:39.902Z,20.80
2022-10-17T22:34:07.920Z,26.50
2022-10-17T22:36:35.254Z,19.77
2022-10-17T22:39:04.529Z,21.43
2022-10-17T22:41:31.356Z,18.05
2022-10-17T22:43:58.198Z,18.27
2022-10-17T22:46:25.832Z,18.97
2022-10-17T22:48:53.697Z,16.60
2022-10-17T22:51:21.339Z,16.00
2022-10-17T22:53:48.201Z,15.80
2022-10-17T22:56:18.623Z,16.27
2022-10-17T22:58:46.116Z,15.07
2022-10-17T23:01:21.943Z,13.40
2022-10-17T23:03:49.471Z,12.37
2022-10-17T23:06:16.440Z,14.23
2022-10-17T23:08:43.665Z,14.20
2022-10-17T23:11:11.236Z,14.37
2022-10-17T23:13:39.838Z,13.00
2022-10-17T23:16:07.282Z,10.85
2022-10-17T23:18:34.076Z,10.23
2022-10-17T23:21:00.838Z,10.70
2022-10-17T23:23:27.616Z,11.17
2022-10-17T23:25:54.493Z,14.37
2022-10-17T23:28:21.350Z,12.33
2022-10-17T23:30:48.194Z,11.13
2022-10-17T23:33:15.294Z,11.93
2022-10-17T23:35:42.624Z,13.07
2022-10-17T23:38:09.928Z,12.40
2022-10-17T23:40:36.949Z,16.13
2022-10-17T23:43:04.940Z,13.23
2022-10-17T23:45:34.801Z,13.00
2022-10-17T23:48:05.020Z,15.50
2022-10-17T23:50:31.808Z,14.40
2022-10-17T23:52:58.671Z,13.43
2022-10-17T23:55:25.575Z,15.13
2022-10-17T23:57:53.640Z,15.30
